createdAt,value
2017-10-10T00:01:11.633Z,21.37
2017-10-10T00:03:46.084Z,16.33
2017-10-10T00:06:20.565Z,17.95
2017-10-10T00:08:54.893Z,18.73
2017-10-10T00:11:29.228Z,18.62
2017-10-10T00:14:04.437Z,19.60
2017-10-10T00:16:38.812Z,15.85
2017-10-10T00:19:13.885Z,18.42
2017-10-10T00:21:48.227Z,18.10
2017-10-10T00:24:23.386Z,17.00
2017-10-10T00:26:57.748Z,18.12
2017-10-10T00:29:32.237Z,16.80
2017-10-10T00:32:06.687Z,20.77
2017-10-10T00:34:41.167Z,19.75
2017-10-10T00:37:15.501Z,21.33
2017-10-10T00:39:49.979Z,17.83
2017-10-10T00:42:24.317Z,19.10
2017-10-10T00:44:58.845Z,16.58
2017-10-10T00:47:33.345Z,20.12
2017-10-10T00:50:08.691Z,16.98
2017-10-10T00:52:43.003Z,18.58
2017-10-10T00:55:17.426Z,15.77
2017-10-10T00:57:51.931Z,16.25
2017-10-10T01:00:27.189Z,17.65
2017-10-10T01:03:01.508Z,16.77
2017-10-10T01:05:36.761Z,19.60
2017-10-10T01:08:11.860Z,15.82
2017-10-10T01:10:46.309Z,16.23
2017-10-10T01:13:21.558Z,15.57
2017-10-10T01:15:56.009Z,26.12
2017-10-10T01:18:30.440Z,17.10
2017-10-10T01:21:04.995Z,15.55
2017-10-10T01:23:39.403Z,17.35
2017-10-10T01:26:13.771Z,17.85
2017-10-10T01:28:48.249Z,21.77
2017-10-10T01:31:22.777Z,17.75
2017-10-10T01:33:57.259Z,15.50
2017-10-10T01:36:31.607Z,20.23
2017-10-10T01:39:06.016Z,14.48
2017-10-10T01:41:40.471Z,17.48
2017-10-10T01:44:15.573Z,16.25
2017-10-10T01:46:50.097Z,15.25
2017-10-10T01:49:24.516Z,19.62
2017-10-10T01:51:58.980Z,19.87
2017-10-10T01:54:33.474Z,20.23
2017-10-10T01:57:07.805Z,19.08
2017-10-10T01:59:42.574Z,17.70
2017-10-10T02:02:17.736Z,18.12
2017-10-10T02:04:53.128Z,17.58
2017-10-10T02:07:27.619Z,16.95
2017-10-10T02:10:04.714Z,15.18
2017-10-10T02:12:39.193Z,14.87
2017-10-10T02:15:14.676Z,17.73
2017-10-10T02:17:49.176Z,16.52
2017-10-10T02:20:23.512Z,16.00
2017-10-10T02:22:57.832Z,16.25
2017-10-10T02:25:32.168Z,15.48
2017-10-10T02:28:06.560Z,17.45
2017-10-10T02:30:40.885Z,17.85
2017-10-10T02:33:15.256Z,15.13
2017-10-10T02:35:49.620Z,17.37
2017-10-10T02:38:24.097Z,16.75
2017-10-10T02:40:58.611Z,23.48
2017-10-10T02:43:33.507Z,22.30
2017-10-10T02:46:07.871Z,24.83
2017-10-10T02:48:42.355Z,19.90
2017-10-10T02:51:16.866Z,19.77
2017-10-10T02:53:51.279Z,20.52
2017-10-10T02:56:25.723Z,24.00
2017-10-10T02:59:00.099Z,20.98
2017-10-10T03:01:34.608Z,19.73
2017-10-10T03:04:08.969Z,19.45
2017-10-10T03:06:43.449Z,19.87
2017-10-10T03:09:18.722Z,19.45
2017-10-10T03:11:53.070Z,25.55
2017-10-10T03:14:27.527Z,23.52
2017-10-10T03:17:01.854Z,22.45
2017-10-10T03:19:36.187Z,22.23
2017-10-10T03:22:11.379Z,18.58
2017-10-10T03:24:46.653Z,24.30
2017-10-10T03:27:21.123Z,22.77
2017-10-10T03:29:55.491Z,19.98
2017-10-10T03:32:29.859Z,22.08
2017-10-10T03:35:04.248Z,23.08
2017-10-10T03:37:38.546Z,17.73
2017-10-10T03:40:13.112Z,16.87
2017-10-10T03:42:48.276Z,14.77
2017-10-10T03:45:22.815Z,16.77
2017-10-10T03:47:58.033Z,13.15
2017-10-10T03:50:33.303Z,17.48
2017-10-10T03:53:07.623Z,12.35
2017-10-10T03:55:42.033Z,13.18
2017-10-10T03:58:16.459Z,13.30
2017-10-10T04:00:51.597Z,12.63
2017-10-10T04:03:25.992Z,12.32
2017-10-10T04:06:00.494Z,13.10
2017-10-10T04:08:40.799Z,9.75
2017-10-10T04:11:15.179Z,8.32
2017-10-10T04:13:49.676Z,7.07
2017-10-10T04:16:24.012Z,6.90
2017-10-10T04:18:58.334Z,8.02
2017-10-10T04:21:32.640Z,8.00
2017-10-10T04:24:07.060Z,11.40
2017-10-10T04:26:41.396Z,9.88
2017-10-10T04:29:15.827Z,9.18
2017-10-10T04:31:50.942Z,14.15
2017-10-10T04:34:25.298Z,7.05
2017-10-10T04:36:59.700Z,11.77
2017-10-10T04:39:34.192Z,6.85
2017-10-10T04:42:08.587Z,6.22
2017-10-10T04:44:43.043Z,11.10
2017-10-10T04:47:18.268Z,11.10
2017-10-10T04:49:52.747Z,9.38
2017-10-10T04:52:27.215Z,5.95
2017-10-10T04:55:01.644Z,7.93
2017-10-10T04:57:36.200Z,7.87
2017-10-10T05:00:10.601Z,7.05
2017-10-10T05:02:45.868Z,13.15
2017-10-10T05:05:20.272Z,6.62
2017-10-10T05:07:54.830Z,7.85
2017-10-10T05:10:29.280Z,6.22
2017-10-10T05:13:03.751Z,10.20
2017-10-10T05:15:38.153Z,5.72
2017-10-10T05:18:12.579Z,10.10
2017-10-10T05:20:46.977Z,7.05
2017-10-10T05:23:21.441Z,8.50
2017-10-10T05:25:55.846Z,6.10
2017-10-10T05:28:31.038Z,7.22
2017-10-10T05:31:05.434Z,9.13
2017-10-10T05:33:39.876Z,6.75
2017-10-10T05:36:14.336Z,9.65
2017-10-10T05:38:48.640Z,11.98
2017-10-10T05:41:23.822Z,16.35
2017-10-10T05:43:58.156Z,13.45
2017-10-10T05:46:32.612Z,17.35
2017-10-10T05:49:07.945Z,15.55
2017-10-10T05:51:42.380Z,20.73
2017-10-10T05:54:16.691Z,22.40
2017-10-10T05:56:51.028Z,19.58
2017-10-10T05:59:26.228Z,30.42
2017-10-10T06:02:00.684Z,25.90
2017-10-10T06:04:34.983Z,32.35
2017-10-10T06:07:09.367Z,35.92
2017-10-10T06:09:43.861Z,28.25
2017-10-10T06:12:18.340Z,30.98
2017-10-10T06:14:52.647Z,33.35
2017-10-10T06:17:27.139Z,33.92
2017-10-10T06:20:01.629Z,35.30
2017-10-10T06:22:36.240Z,34.47
2017-10-10T06:25:10.549Z,33.38
2017-10-10T06:27:44.895Z,43.70
2017-10-10T06:30:20.908Z,38.25
2017-10-10T06:32:55.830Z,41.40
2017-10-10T06:35:30.301Z,37.97
2017-10-10T06:38:04.621Z,38.95
2017-10-10T06:40:39.117Z,47.60
2017-10-10T06:43:13.497Z,45.78
2017-10-10T06:45:48.053Z,42.88
2017-10-10T06:48:22.672Z,42.10
2017-10-10T06:50:57.139Z,44.83
2017-10-10T06:53:31.646Z,48.60
2017-10-10T06:56:07.098Z,52.80
2017-10-10T06:58:41.606Z,44.17
2017-10-10T07:01:15.952Z,45.60
2017-10-10T07:03:50.294Z,51.60
2017-10-10T07:06:24.624Z,51.75
2017-10-10T07:08:59.095Z,46.88
2017-10-10T07:11:34.266Z,44.90
2017-10-10T07:14:10.384Z,50.78
2017-10-10T07:16:44.802Z,42.67
2017-10-10T07:19:19.348Z,41.45
2017-10-10T07:21:53.788Z,42.50
2017-10-10T07:24:28.376Z,43.67
2017-10-10T07:27:02.828Z,44.17
2017-10-10T07:29:37.160Z,50.17
2017-10-10T07:32:11.587Z,41.88
2017-10-10T07:34:46.104Z,47.40
2017-10-10T07:37:20.454Z,48.05
2017-10-10T07:39:54.969Z,38.50
2017-10-10T07:42:30.176Z,42.45
2017-10-10T07:45:04.731Z,30.58
2017-10-10T07:47:39.929Z,38.63
2017-10-10T07:50:14.268Z,33.95
2017-10-10T07:52:48.820Z,36.55
2017-10-10T07:55:23.918Z,33.55
2017-10-10T07:57:58.328Z,31.85
2017-10-10T08:00:32.680Z,29.73
2017-10-10T08:03:07.880Z,32.90
2017-10-10T08:05:43.170Z,28.25
2017-10-10T08:08:17.664Z,35.53
2017-10-10T08:10:52.269Z,32.75
2017-10-10T08:13:26.601Z,29.70
2017-10-10T08:16:01.868Z,26.67
2017-10-10T08:18:36.332Z,26.77
2017-10-10T08:21:10.678Z,31.55
2017-10-10T08:23:45.147Z,27.20
2017-10-10T08:26:19.643Z,25.17
2017-10-10T08:28:54.146Z,23.60
2017-10-10T08:31:28.603Z,28.12
2017-10-10T08:34:02.959Z,23.77
2017-10-10T08:36:37.475Z,28.02
2017-10-10T08:39:11.831Z,26.12
2017-10-10T08:41:47.023Z,24.55
2017-10-10T08:44:21.459Z,24.15
2017-10-10T08:46:55.920Z,24.42
2017-10-10T08:49:30.278Z,29.02
2017-10-10T08:52:04.803Z,27.48
2017-10-10T08:54:39.260Z,25.37
2017-10-10T08:57:14.769Z,22.75
2017-10-10T08:59:49.211Z,23.90
2017-10-10T09:02:23.663Z,30.60
2017-10-10T09:04:58.135Z,22.25
2017-10-10T09:07:33.409Z,24.83
2017-10-10T09:10:08.513Z,28.90
2017-10-10T09:12:42.997Z,25.45
2017-10-10T09:15:17.418Z,27.40
2017-10-10T09:17:51.766Z,26.27
2017-10-10T09:20:26.183Z,27.87
2017-10-10T09:23:00.542Z,25.15
2017-10-10T09:25:34.959Z,24.58
2017-10-10T09:28:09.514Z,22.90
2017-10-10T09:30:43.858Z,23.98
2017-10-10T09:33:18.331Z,23.75
2017-10-10T09:35:52.617Z,21.77
2017-10-10T09:38:26.960Z,20.55
2017-10-10T09:41:01.462Z,22.10
2017-10-10T09:43:36.889Z,19.55
2017-10-10T09:46:13.805Z,22.13
2017-10-10T09:48:48.119Z,21.37
2017-10-10T09:51:22.578Z,19.62
2017-10-10T09:53:57.158Z,19.80
2017-10-10T09:56:31.604Z,21.92
2017-10-10T09:59:06.064Z,19.58
2017-10-10T10:01:40.482Z,14.50
2017-10-10T10:04:14.776Z,11.70
2017-10-10T10:06:49.120Z,16.60
2017-10-10T10:09:23.545Z,17.77
2017-10-10T10:11:58.172Z,17.58
2017-10-10T10:14:33.349Z,15.00
2017-10-10T10:17:07.936Z,21.60
2017-10-10T10:19:42.401Z,17.55
2017-10-10T10:22:17.534Z,20.80
2017-10-10T10:24:51.858Z,19.00
2017-10-10T10:27:26.336Z,17.30
2017-10-10T10:30:00.856Z,19.42
2017-10-10T10:32:35.226Z,16.37
2017-10-10T10:35:09.726Z,21.20
2017-10-10T10:37:44.839Z,21.00
2017-10-10T10:40:19.174Z,23.70
2017-10-10T10:42:53.554Z,18.00
2017-10-10T10:45:28.088Z,17.87
2017-10-10T10:48:03.437Z,23.77
2017-10-10T10:50:37.791Z,20.20
2017-10-10T10:53:12.907Z,19.40
2017-10-10T10:55:47.260Z,23.08
2017-10-10T10:58:22.141Z,23.33
2017-10-10T11:00:56.668Z,18.42
2017-10-10T11:03:31.248Z,16.37
2017-10-10T11:06:05.696Z,16.83
2017-10-10T11:08:40.038Z,28.45
2017-10-10T11:11:15.215Z,23.35
2017-10-10T11:13:49.777Z,18.42
2017-10-10T11:16:24.202Z,16.40
2017-10-10T11:18:58.593Z,18.00
2017-10-10T11:21:33.031Z,17.95
2017-10-10T11:24:07.363Z,18.77
2017-10-10T11:26:42.460Z,18.67
2017-10-10T11:29:16.787Z,16.17
2017-10-10T11:31:52.086Z,20.10
2017-10-10T11:34:26.444Z,19.33
2017-10-10T11:37:00.990Z,15.82
2017-10-10T11:39:36.236Z,18.52
2017-10-10T11:42:10.747Z,17.33
2017-10-10T11:44:45.149Z,25.58
2017-10-10T11:47:20.427Z,12.10
2017-10-10T11:49:54.847Z,20.20
2017-10-10T11:52:29.144Z,15.52
2017-10-10T11:55:03.486Z,15.23
2017-10-10T11:57:37.965Z,17.10
2017-10-10T12:00:12.765Z,15.93
2017-10-10T12:02:47.080Z,15.88
2017-10-10T12:05:21.410Z,14.07
2017-10-10T12:07:55.745Z,12.68
2017-10-10T12:10:30.187Z,13.05
2017-10-10T12:13:04.490Z,10.75
2017-10-10T12:15:38.804Z,10.98
2017-10-10T12:18:13.309Z,11.60
2017-10-10T12:20:47.736Z,9.40
2017-10-10T12:23:22.128Z,7.47
2017-10-10T12:25:56.460Z,10.60
2017-10-10T12:28:30.921Z,10.70
2017-10-10T12:31:05.446Z,12.07
2017-10-10T12:33:39.800Z,7.90
2017-10-10T12:36:14.108Z,10.27
2017-10-10T12:38:48.512Z,11.40
2017-10-10T12:41:23.723Z,12.95
2017-10-10T12:43:58.188Z,13.23
2017-10-10T12:46:32.690Z,10.93
2017-10-10T12:49:07.127Z,11.27
2017-10-10T12:51:41.480Z,12.68
2017-10-10T12:54:16.719Z,11.00
2017-10-10T12:56:51.267Z,11.60
2017-10-10T12:59:25.642Z,9.82
2017-10-10T13:02:00.129Z,13.38
2017-10-10T13:04:34.619Z,13.25
2017-10-10T13:07:09.040Z,12.98
2017-10-10T13:09:44.269Z,11.65
2017-10-10T13:12:18.922Z,14.20
2017-10-10T13:14:53.519Z,11.48
2017-10-10T13:17:27.932Z,12.10
2017-10-10T13:20:02.282Z,10.50
2017-10-10T13:22:36.752Z,11.65
2017-10-10T13:25:11.132Z,9.23
2017-10-10T13:27:45.601Z,17.60
2017-10-10T13:30:20.124Z,12.30
2017-10-10T13:32:54.541Z,14.73
2017-10-10T13:35:29.187Z,14.27
2017-10-10T13:38:03.475Z,13.35
2017-10-10T13:40:37.816Z,13.82
2017-10-10T13:43:12.311Z,13.43
2017-10-10T13:45:46.784Z,11.65
2017-10-10T13:48:21.428Z,13.55
2017-10-10T13:50:56.583Z,18.77
2017-10-10T13:53:31.015Z,16.52
2017-10-10T13:56:06.040Z,11.48
2017-10-10T13:58:40.523Z,13.05
2017-10-10T14:01:15.011Z,16.42
2017-10-10T14:03:49.520Z,12.50
2017-10-10T14:06:23.873Z,15.55
2017-10-10T14:08:58.978Z,9.38
2017-10-10T14:11:33.570Z,17.05
2017-10-10T14:14:07.997Z,13.62
2017-10-10T14:16:42.448Z,14.63
2017-10-10T14:19:16.968Z,15.15
2017-10-10T14:21:51.488Z,15.15
2017-10-10T14:24:25.936Z,14.73
2017-10-10T14:27:00.421Z,16.33
2017-10-10T14:29:35.663Z,20.05
2017-10-10T14:32:10.251Z,15.27
2017-10-10T14:34:44.595Z,16.00
2017-10-10T14:37:19.024Z,15.93
2017-10-10T14:39:53.553Z,13.07
2017-10-10T14:42:28.692Z,17.60
2017-10-10T14:45:02.989Z,15.95
2017-10-10T14:47:37.428Z,20.50
2017-10-10T14:50:12.644Z,13.75
2017-10-10T14:52:46.998Z,17.17
2017-10-10T14:55:21.404Z,9.20
2017-10-10T14:57:56.564Z,14.23
2017-10-10T15:00:31.008Z,12.15
2017-10-10T15:03:05.404Z,11.75
2017-10-10T15:05:40.593Z,9.68
2017-10-10T15:08:15.648Z,10.25
2017-10-10T15:10:49.997Z,10.88
2017-10-10T15:13:24.507Z,12.05
2017-10-10T15:15:58.881Z,11.43
2017-10-10T15:18:33.332Z,11.95
2017-10-10T15:21:07.771Z,10.63
2017-10-10T15:23:42.150Z,16.90
2017-10-10T15:26:16.553Z,6.32
2017-10-10T15:28:51.065Z,9.93
2017-10-10T15:31:25.434Z,12.25
2017-10-10T15:33:59.795Z,13.82
2017-10-10T15:36:34.301Z,13.40
2017-10-10T15:39:08.656Z,11.95
2017-10-10T15:41:43.117Z,12.68
2017-10-10T15:44:18.630Z,12.37
2017-10-10T15:46:53.136Z,12.82
2017-10-10T15:49:27.472Z,12.23
2017-10-10T15:52:02.202Z,14.13
2017-10-10T15:54:36.652Z,15.38
2017-10-10T15:57:11.090Z,18.42
2017-10-10T15:59:45.578Z,10.98
2017-10-10T16:02:19.888Z,15.80
2017-10-10T16:04:54.319Z,16.12
2017-10-10T16:07:28.990Z,19.05
2017-10-10T16:10:03.373Z,15.80
2017-10-10T16:12:38.022Z,19.48
2017-10-10T16:15:13.312Z,17.33
2017-10-10T16:17:48.452Z,15.55
2017-10-10T16:20:22.956Z,18.42
2017-10-10T16:22:57.288Z,17.60
2017-10-10T16:25:31.615Z,19.17
2017-10-10T16:28:06.064Z,23.12
2017-10-10T16:30:41.285Z,20.25
2017-10-10T16:33:15.704Z,25.85
2017-10-10T16:35:50.253Z,16.00
2017-10-10T16:38:24.696Z,18.87
2017-10-10T16:40:59.876Z,26.30
2017-10-10T16:43:35.450Z,18.55
2017-10-10T16:46:10.063Z,20.02
2017-10-10T16:48:47.367Z,21.92
2017-10-10T16:51:24.400Z,16.90
2017-10-10T16:53:58.810Z,19.83
2017-10-10T16:56:33.252Z,19.83
2017-10-10T16:59:07.741Z,20.77
2017-10-10T17:01:42.364Z,19.80
2017-10-10T17:04:17.189Z,24.67
2017-10-10T17:06:51.666Z,18.80
2017-10-10T17:09:26.200Z,22.45
2017-10-10T17:12:00.760Z,19.17
2017-10-10T17:14:35.535Z,18.50
2017-10-10T17:17:10.027Z,14.70
2017-10-10T17:19:45.385Z,16.77
2017-10-10T17:22:19.960Z,18.17
2017-10-10T17:24:55.473Z,22.52
2017-10-10T17:27:29.926Z,22.73
2017-10-10T17:30:04.667Z,19.73
2017-10-10T17:32:39.262Z,17.80
2017-10-10T17:35:14.834Z,14.73
2017-10-10T17:37:49.596Z,16.83
2017-10-10T17:40:24.767Z,22.45
2017-10-10T17:43:00.298Z,20.80
2017-10-10T17:45:35.063Z,22.27
2017-10-10T17:48:09.656Z,16.30
2017-10-10T17:50:44.790Z,19.90
2017-10-10T17:53:19.465Z,12.52
2017-10-10T17:55:55.470Z,12.32
2017-10-10T17:58:30.218Z,13.07
2017-10-10T18:01:05.053Z,15.63
2017-10-10T18:03:39.660Z,14.57
2017-10-10T18:06:15.184Z,20.95
2017-10-10T18:08:49.794Z,10.93
2017-10-10T18:11:24.714Z,11.12
2017-10-10T18:13:59.721Z,7.95
2017-10-10T18:16:34.690Z,10.98
2017-10-10T18:19:09.649Z,13.70
2017-10-10T18:21:44.451Z,11.43
2017-10-10T18:24:19.188Z,10.23
2017-10-10T18:26:54.132Z,19.83
2017-10-10T18:29:29.004Z,9.65
2017-10-10T18:32:03.820Z,6.53
2017-10-10T18:34:38.587Z,7.05
2017-10-10T18:37:13.584Z,17.83
2017-10-10T18:39:49.310Z,13.52
2017-10-10T18:42:25.755Z,7.57
2017-10-10T18:45:01.444Z,6.07
2017-10-10T18:47:36.325Z,6.20
2017-10-10T18:50:11.283Z,5.10
2017-10-10T18:52:47.902Z,10.23
2017-10-10T18:55:22.825Z,8.80
2017-10-10T18:57:57.739Z,4.72
2017-10-10T19:00:32.489Z,6.45
2017-10-10T19:03:07.690Z,11.15
2017-10-10T19:05:42.406Z,8.07
2017-10-10T19:08:17.432Z,4.32
2017-10-10T19:10:53.498Z,13.40
2017-10-10T19:13:28.305Z,4.50
2017-10-10T19:16:04.162Z,16.17
2017-10-10T19:18:40.462Z,11.18
2017-10-10T19:21:16.201Z,15.15
2017-10-10T19:23:51.127Z,9.30
2017-10-10T19:26:27.391Z,6.80
2017-10-10T19:29:02.166Z,5.75
2017-10-10T19:31:40.283Z,12.02
2017-10-10T19:34:15.714Z,5.32
2017-10-10T19:36:51.862Z,6.72
2017-10-10T19:39:27.678Z,9.75
2017-10-10T19:42:04.403Z,9.85
2017-10-10T19:44:40.512Z,9.75
2017-10-10T19:47:15.439Z,6.50
2017-10-10T19:49:50.278Z,7.72
2017-10-10T19:52:25.263Z,8.05
2017-10-10T19:55:01.098Z,9.93
2017-10-10T19:57:36.377Z,5.22
2017-10-10T20:06:18.990Z,13.57
2017-10-10T20:08:53.807Z,15.90
2017-10-10T20:11:29.430Z,17.73
2017-10-10T20:14:05.180Z,20.55
2017-10-10T20:16:40.110Z,13.40
2017-10-10T20:19:15.786Z,5.75
2017-10-10T20:21:50.684Z,7.03
2017-10-10T20:24:25.841Z,9.65
2017-10-10T20:27:00.631Z,16.12
2017-10-10T20:29:35.523Z,9.20
2017-10-10T20:32:10.167Z,13.45
2017-10-10T20:34:44.734Z,8.52
2017-10-10T20:37:19.399Z,13.18
2017-10-10T20:39:53.932Z,5.80
2017-10-10T20:42:28.556Z,16.23
2017-10-10T20:45:02.890Z,8.27
2017-10-10T20:47:37.374Z,4.15
2017-10-10T20:50:11.683Z,5.93
2017-10-10T20:52:46.232Z,9.23
2017-10-10T20:55:20.715Z,8.80
2017-10-10T20:57:55.263Z,9.82
2017-10-10T21:00:29.570Z,8.80
2017-10-10T21:03:03.899Z,10.30
2017-10-10T21:05:38.349Z,10.65
2017-10-10T21:08:12.727Z,8.18
2017-10-10T21:10:47.078Z,18.10
2017-10-10T21:13:21.563Z,12.18
2017-10-10T21:15:55.972Z,13.75
2017-10-10T21:18:30.343Z,23.75
2017-10-10T21:21:04.925Z,11.70
2017-10-10T21:23:39.276Z,16.45
2017-10-10T21:26:13.711Z,17.87
2017-10-10T21:28:48.322Z,17.42
2017-10-10T21:31:22.761Z,18.45
2017-10-10T21:33:57.077Z,13.75
2017-10-10T21:36:31.488Z,7.75
2017-10-10T21:39:06.754Z,17.27
2017-10-10T21:41:41.125Z,18.08
2017-10-10T21:44:15.745Z,14.52
2017-10-10T21:46:50.174Z,23.30
2017-10-10T21:49:24.499Z,20.67
2017-10-10T21:51:59.054Z,21.48
2017-10-10T21:54:33.467Z,22.70
2017-10-10T21:57:07.912Z,26.02
2017-10-10T21:59:42.306Z,23.55
2017-10-10T22:02:16.662Z,14.82
2017-10-10T22:04:51.096Z,15.02
2017-10-10T22:07:25.504Z,14.65
2017-10-10T22:09:59.901Z,15.88
2017-10-10T22:12:34.343Z,14.32
2017-10-10T22:15:08.783Z,12.75
2017-10-10T22:17:43.120Z,19.75
2017-10-10T22:20:17.558Z,13.40
2017-10-10T22:22:51.938Z,13.93
2017-10-10T22:25:27.348Z,13.68
2017-10-10T22:28:01.880Z,14.90
2017-10-10T22:30:36.299Z,13.30
2017-10-10T22:33:10.720Z,17.35
2017-10-10T22:35:45.080Z,18.92
2017-10-10T22:38:19.652Z,18.55
2017-10-10T22:40:54.208Z,12.32
2017-10-10T22:43:28.617Z,13.73
2017-10-10T22:46:02.966Z,14.50
2017-10-10T22:48:37.408Z,13.75
2017-10-10T22:51:11.873Z,15.25
2017-10-10T22:53:47.087Z,15.30
2017-10-10T22:56:21.431Z,7.85
2017-10-10T22:58:55.964Z,16.55
2017-10-10T23:01:30.384Z,8.13
2017-10-10T23:04:04.691Z,12.65
2017-10-10T23:06:39.165Z,11.10
2017-10-10T23:09:13.497Z,8.20
2017-10-10T23:11:47.838Z,8.02
2017-10-10T23:14:22.335Z,10.15
2017-10-10T23:16:56.707Z,13.85
2017-10-10T23:19:31.183Z,9.75
2017-10-10T23:22:05.581Z,9.60
2017-10-10T23:24:40.092Z,8.00
2017-10-10T23:27:14.632Z,9.27
2017-10-10T23:29:49.001Z,5.68
2017-10-10T23:32:23.344Z,12.45
2017-10-10T23:34:57.824Z,8.65
2017-10-10T23:37:32.208Z,8.63
2017-10-10T23:40:06.613Z,7.97
2017-10-10T23:42:40.972Z,6.35
2017-10-10T23:45:15.432Z,8.13
2017-10-10T23:47:50.548Z,10.10
2017-10-10T23:50:25.987Z,9.75
2017-10-10T23:53:00.452Z,6.40
2017-10-10T23:55:34.931Z,7.03
2017-10-10T23:58:09.296Z,9.75
